Time;durP1;ratioP1;P1;durP2;ratioP2;P2;SDS_P1;SDS_P2;PMS_P1;PMS_P2;Temp;Humidity;BMP_temperature;BMP_pressure;BME280_temperature;BME280_humidity;BME280_pressure;Samples;Min_cycle;Max_cycle;Signal;HPM_P1;HPM_P2
2022/11/08 00:01:33;;;;;;;7.18;3.05;;;20.50;99.90;;;;;;4146018;28;20197;-74
2022/11/08 00:03:35;;;;;;;4.72;3.10;;;20.50;99.90;;;;;;4146814;28;20723;-74
2022/11/08 00:15:02;;;;;;;6.03;3.13;;;20.40;99.90;;;;;;4145022;28;20200;-74
2022/11/08 00:17:05;;;;;;;6.25;3.13;;;20.40;99.90;;;;;;4149225;28;20653;-74
2022/11/08 00:19:07;;;;;;;5.88;3.42;;;20.40;99.90;;;;;;4149252;28;20216;-74
2022/11/08 00:21:11;;;;;;;4.15;2.75;;;20.40;99.90;;;;;;4148279;28;20225;-74
2022/11/08 00:23:13;;;;;;;6.47;3.13;;;20.40;99.90;;;;;;4149893;28;20287;-74
2022/11/08 00:25:15;;;;;;;4.90;2.85;;;20.40;99.90;;;;;;4148503;28;20233;-74
2022/11/08 00:27:19;;;;;;;7.10;3.17;;;20.40;99.90;;;;;;4148940;28;20220;-74
2022/11/08 00:29:21;;;;;;;6.07;2.90;;;20.40;99.90;;;;;;4154121;28;20251;-74
2022/11/08 00:31:24;;;;;;;5.18;2.97;;;20.30;99.90;;;;;;4145618;28;20245;-74
2022/11/08 00:33:26;;;;;;;6.95;3.65;;;20.30;99.90;;;;;;4145374;28;20226;-74
2022/11/08 00:35:28;;;;;;;5.47;3.22;;;20.30;99.90;;;;;;4148513;28;20225;-74
2022/11/08 00:37:32;;;;;;;6.68;3.30;;;20.40;99.90;;;;;;4143431;28;20702;-74
2022/11/08 00:39:36;;;;;;;4.68;2.95;;;20.30;99.90;;;;;;4147062;28;20252;-74
2022/11/08 00:41:38;;;;;;;5.63;3.13;;;20.30;99.90;;;;;;4150018;28;20217;-74
2022/11/08 00:43:40;;;;;;;5.88;3.17;;;20.40;99.90;;;;;;4142168;28;20290;-74
2022/11/08 00:45:43;;;;;;;5.47;3.30;;;20.30;99.90;;;;;;4150197;28;20279;-74
2022/11/08 00:47:45;;;;;;;4.95;3.33;;;20.40;99.90;;;;;;4150100;28;20212;-74
2022/11/08 00:49:47;;;;;;;6.20;3.30;;;20.40;99.90;;;;;;4145923;28;20221;-74
2022/11/08 00:51:50;;;;;;;8.98;2.90;;;20.30;99.90;;;;;;4147268;28;20643;-74
2022/11/08 00:53:54;;;;;;;4.78;2.97;;;20.30;99.90;;;;;;4146038;28;20259;-74
2022/11/08 00:56:00;;;;;;;5.45;3.33;;;20.30;99.90;;;;;;4149669;28;20259;-74
2022/11/08 00:58:02;;;;;;;4.78;2.95;;;20.30;99.90;;;;;;4149588;28;20225;-74
2022/11/08 01:00:05;;;;;;;7.05;3.75;;;20.30;99.90;;;;;;4145947;28;20674;-74
2022/11/08 01:02:07;;;;;;;5.88;3.00;;;20.30;99.90;;;;;;4146713;28;20217;-74
2022/11/08 01:04:11;;;;;;;5.38;2.80;;;20.30;99.90;;;;;;4144767;28;20629;-74
2022/11/08 01:06:15;;;;;;;4.03;2.72;;;20.30;99.90;;;;;;4143075;28;20213;-74
2022/11/08 01:08:18;;;;;;;5.35;2.75;;;20.30;99.90;;;;;;4144978;28;20275;-74
2022/11/08 01:10:21;;;;;;;4.93;3.05;;;20.30;99.90;;;;;;4144605;28;20212;-74
2022/11/08 01:12:24;;;;;;;5.15;2.70;;;20.30;99.90;;;;;;4141892;28;20241;-74
2022/11/08 01:14:26;;;;;;;4.30;2.90;;;20.30;99.90;;;;;;4144239;28;20275;-74
2022/11/08 01:16:30;;;;;;;5.07;2.95;;;20.30;99.90;;;;;;4144796;28;20225;-74
2022/11/08 01:18:33;;;;;;;6.63;3.35;;;20.30;99.90;;;;;;4142432;28;20216;-74
2022/11/08 01:20:39;;;;;;;5.28;3.05;;;20.30;99.90;;;;;;4144417;28;20720;-75
2022/11/08 01:22:41;;;;;;;5.72;2.92;;;20.20;99.90;;;;;;4141158;28;20210;-75
2022/11/08 01:24:44;;;;;;;5.00;2.65;;;20.20;99.90;;;;;;4143825;28;20221;-75
2022/11/08 01:26:50;;;;;;;7.30;3.17;;;20.20;99.90;;;;;;4144333;28;20224;-75
2022/11/08 01:28:53;;;;;;;8.07;3.22;;;20.20;99.90;;;;;;4139707;28;20724;-75
2022/11/08 01:30:55;;;;;;;6.15;2.92;;;20.20;99.90;;;;;;4144323;28;20213;-74
2022/11/08 01:32:58;;;;;;;5.28;2.95;;;20.20;99.90;;;;;;4144161;28;20291;-75
2022/11/08 01:35:00;;;;;;;5.20;2.83;;;20.20;99.90;;;;;;4140425;28;20290;-74
2022/11/08 01:37:02;;;;;;;5.05;3.03;;;20.20;99.90;;;;;;4144663;28;20279;-74
2022/11/08 01:39:05;;;;;;;5.20;3.00;;;20.20;99.90;;;;;;4144659;28;20605;-74
2022/11/08 01:41:08;;;;;;;5.38;3.15;;;20.20;99.90;;;;;;4141381;28;20224;-74
2022/11/08 01:43:38;;;;;;;5.60;3.00;;;20.20;99.90;;;;;;4144226;28;20731;-74
2022/11/08 01:46:10;;;;;;;4.90;2.97;;;20.10;99.90;;;;;;4143142;28;20214;-75
2022/11/08 01:48:12;;;;;;;5.90;2.83;;;20.10;99.90;;;;;;4145005;28;20225;-74
2022/11/08 01:50:18;;;;;;;4.78;2.90;;;20.20;99.90;;;;;;4143452;28;20266;-75
2022/11/08 01:52:29;;;;;;;5.68;3.25;;;20.10;99.90;;;;;;4139847;28;20355;-74
2022/11/08 01:54:36;;;;;;;5.05;2.92;;;20.10;99.90;;;;;;4142857;28;20220;-75
2022/11/08 01:56:39;;;;;;;5.53;3.10;;;20.10;99.90;;;;;;4144048;28;20630;-74
2022/11/08 01:58:45;;;;;;;5.55;2.97;;;20.10;99.90;;;;;;4141571;28;21056;-74
2022/11/08 02:00:48;;;;;;;4.90;2.55;;;20.10;99.90;;;;;;4143821;28;20221;-74
2022/11/08 02:02:55;;;;;;;4.18;2.90;;;20.10;99.90;;;;;;4142286;28;20634;-75
2022/11/08 02:04:58;;;;;;;4.10;2.95;;;20.10;99.90;;;;;;4143303;28;20232;-74
2022/11/08 02:07:01;;;;;;;4.43;2.67;;;20.10;99.90;;;;;;4144589;28;20221;-75
2022/11/08 02:09:08;;;;;;;5.93;2.97;;;20.10;99.90;;;;;;4140948;28;20217;-75
2022/11/08 02:11:14;;;;;;;4.97;2.70;;;20.00;99.90;;;;;;4144597;28;20271;-74
2022/11/08 02:13:19;;;;;;;5.63;2.92;;;20.10;99.90;;;;;;4149648;28;20291;-74
2022/11/08 02:15:25;;;;;;;4.15;2.80;;;20.00;99.90;;;;;;4146435;28;20248;-74
2022/11/08 02:17:27;;;;;;;5.25;2.60;;;20.00;99.90;;;;;;4147778;28;20232;-75
2022/11/08 02:19:38;;;;;;;7.40;3.58;;;20.00;99.90;;;;;;4150843;28;20229;-74
2022/11/08 02:21:47;;;;;;;7.10;2.90;;;20.00;99.90;;;;;;4143073;28;20263;-75
2022/11/08 02:23:51;;;;;;;5.25;2.72;;;20.00;99.90;;;;;;4150932;28;20602;-75
2022/11/08 02:25:54;;;;;;;6.07;3.15;;;20.00;99.90;;;;;;4148640;28;20216;-74
2022/11/08 02:27:56;;;;;;;5.70;2.85;;;20.00;99.90;;;;;;4141981;28;20724;-75
2022/11/08 02:29:58;;;;;;;4.93;2.90;;;20.00;99.90;;;;;;4150109;28;20263;-74
2022/11/08 02:32:02;;;;;;;4.82;2.55;;;20.00;99.90;;;;;;4148729;28;20244;-74
2022/11/08 02:34:04;;;;;;;6.40;3.13;;;20.00;99.90;;;;;;4145624;28;20271;-74
2022/11/08 02:36:08;;;;;;;4.55;2.90;;;20.00;99.90;;;;;;4148584;28;20220;-74
2022/11/08 02:38:11;;;;;;;5.15;2.90;;;20.00;99.90;;;;;;4142869;28;20280;-75
2022/11/08 02:40:14;;;;;;;5.00;2.85;;;20.00;99.90;;;;;;4147953;28;20229;-75
2022/11/08 02:42:18;;;;;;;4.85;2.45;;;20.00;99.90;;;;;;4149348;28;20317;-75
2022/11/08 02:44:21;;;;;;;4.18;2.58;;;20.00;99.90;;;;;;4141435;28;20275;-74
2022/11/08 02:46:23;;;;;;;4.15;2.45;;;20.00;99.90;;;;;;4152555;28;20220;-74
2022/11/08 02:48:26;;;;;;;5.28;2.60;;;20.00;99.90;;;;;;4151482;28;20356;-75
2022/11/08 02:50:28;;;;;;;6.05;3.30;;;20.00;99.90;;;;;;4145856;28;20270;-75
2022/11/08 02:52:30;;;;;;;3.83;2.55;;;19.90;99.90;;;;;;4152973;28;20232;-75
2022/11/08 02:54:36;;;;;;;4.43;2.53;;;20.00;99.90;;;;;;4156029;28;20289;-74
2022/11/08 02:56:40;;;;;;;4.30;2.58;;;20.00;99.90;;;;;;4150388;28;20639;-74
2022/11/08 02:58:42;;;;;;;4.07;2.38;;;19.90;99.90;;;;;;4155786;28;20267;-74
2022/11/08 03:00:44;;;;;;;3.80;2.08;;;20.00;99.90;;;;;;4150429;28;20263;-74
2022/11/08 03:02:50;;;;;;;4.97;2.55;;;19.90;99.90;;;;;;4151373;28;20220;-74
2022/11/08 03:04:52;;;;;;;5.28;2.80;;;19.90;99.90;;;;;;4150830;28;20236;-75
2022/11/08 03:06:54;;;;;;;4.07;2.60;;;19.90;99.90;;;;;;4145877;28;20217;-75
2022/11/08 03:08:57;;;;;;;4.43;2.38;;;19.90;99.90;;;;;;4148332;28;20267;-74
2022/11/08 03:10:59;;;;;;;4.75;2.47;;;19.90;99.90;;;;;;4150129;28;20593;-74
2022/11/08 03:13:05;;;;;;;5.07;2.70;;;19.90;99.90;;;;;;4144482;28;20295;-75
2022/11/08 03:15:09;;;;;;;5.07;2.13;;;19.90;99.90;;;;;;4152090;28;20334;-75
2022/11/08 03:17:11;;;;;;;5.18;2.47;;;19.90;99.90;;;;;;4149653;28;20229;-74
2022/11/08 03:19:14;;;;;;;4.07;2.80;;;19.90;99.90;;;;;;4147211;28;20267;-74
2022/11/08 03:21:16;;;;;;;4.25;2.50;;;19.90;99.90;;;;;;4150433;28;20221;-74
2022/11/08 03:23:19;;;;;;;4.93;2.33;;;19.90;99.90;;;;;;4150264;28;20653;-75
2022/11/08 03:25:21;;;;;;;4.30;2.35;;;19.90;99.90;;;;;;4146834;28;20216;-75
2022/11/08 03:27:24;;;;;;;4.07;2.35;;;19.90;99.90;;;;;;4150987;28;20275;-74
2022/11/08 03:29:27;;;;;;;4.90;2.42;;;19.90;99.90;;;;;;4151223;28;20229;-74
2022/11/08 03:31:30;;;;;;;3.75;2.63;;;19.90;99.90;;;;;;4147666;28;20315;-74
2022/11/08 03:33:32;;;;;;;4.35;2.50;;;19.80;99.90;;;;;;4152451;28;20248;-74
2022/11/08 03:35:34;;;;;;;4.65;2.50;;;19.80;99.90;;;;;;4150870;28;20224;-75
2022/11/08 03:37:36;;;;;;;3.88;2.58;;;19.90;99.90;;;;;;4148602;28;20338;-75
2022/11/08 03:39:39;;;;;;;3.72;2.58;;;19.90;99.90;;;;;;4149665;28;20221;-74
2022/11/08 03:41:41;;;;;;;3.33;2.50;;;19.80;99.90;;;;;;4146642;28;20221;-74
2022/11/08 03:43:43;;;;;;;3.53;2.10;;;19.80;99.90;;;;;;4150249;28;20263;-74
2022/11/08 03:45:47;;;;;;;3.88;2.38;;;19.80;99.90;;;;;;4148652;28;20213;-74
2022/11/08 03:47:50;;;;;;;3.10;2.03;;;19.80;99.90;;;;;;4143136;28;20214;-75
2022/11/08 03:49:52;;;;;;;4.90;2.58;;;19.80;99.90;;;;;;4150500;28;20278;-74
2022/11/08 03:51:54;;;;;;;3.78;2.28;;;19.80;99.90;;;;;;4150559;28;20221;-74
2022/11/08 03:53:56;;;;;;;3.60;2.10;;;19.80;99.90;;;;;;4144757;28;20280;-74
2022/11/08 03:55:59;;;;;;;4.18;2.38;;;19.80;99.90;;;;;;4150118;28;20225;-74
2022/11/08 03:58:02;;;;;;;4.60;2.33;;;19.80;99.90;;;;;;4146904;28;20228;-73
2022/11/08 04:00:06;;;;;;;4.47;2.63;;;19.80;99.90;;;;;;4142021;28;20747;-74
2022/11/08 04:02:10;;;;;;;4.15;2.40;;;19.80;99.90;;;;;;4149870;28;20224;-74
2022/11/08 04:04:12;;;;;;;4.20;2.50;;;19.80;99.90;;;;;;4149689;28;20275;-74
2022/11/08 04:06:14;;;;;;;4.32;2.17;;;19.80;99.90;;;;;;4144626;28;20225;-74
2022/11/08 04:08:16;;;;;;;3.35;2.17;;;19.80;99.90;;;;;;4149101;28;20212;-74
2022/11/08 04:10:19;;;;;;;4.55;2.15;;;19.80;99.90;;;;;;4147196;28;20290;-74
2022/11/08 04:17:00;;;;;;;4.47;2.13;;;19.80;99.90;;;;;;4149129;28;20214;-74
2022/11/08 04:21:22;;;;;;;4.78;2.65;;;19.80;99.90;;;;;;4149814;28;20212;-73
2022/11/08 04:23:26;;;;;;;2.92;1.98;;;19.80;99.90;;;;;;4145474;28;20213;-74
2022/11/08 04:25:28;;;;;;;4.32;2.10;;;19.70;99.90;;;;;;4150526;28;20287;-74
2022/11/08 04:27:30;;;;;;;3.47;2.50;;;19.70;99.90;;;;;;4149798;28;20283;-74
2022/11/08 04:29:32;;;;;;;4.32;2.35;;;19.80;99.90;;;;;;4146083;28;20631;-74
2022/11/08 04:31:35;;;;;;;3.35;2.08;;;19.70;99.90;;;;;;4147739;28;20216;-74
2022/11/08 04:33:37;;;;;;;3.63;2.08;;;19.70;99.90;;;;;;4149149;28;20237;-74
2022/11/08 04:35:41;;;;;;;4.70;2.60;;;19.70;99.90;;;;;;4148115;28;20286;-74
2022/11/08 04:37:43;;;;;;;3.83;2.13;;;19.70;99.90;;;;;;4149594;28;20217;-74
2022/11/08 04:39:45;;;;;;;3.83;2.00;;;19.70;99.90;;;;;;4147656;28;20217;-75
2022/11/08 04:41:48;;;;;;;2.97;1.95;;;19.70;99.90;;;;;;4147501;28;20614;-74
2022/11/08 04:43:52;;;;;;;3.30;2.45;;;19.70;99.90;;;;;;4147939;28;20262;-75
2022/11/08 04:45:59;;;;;;;3.78;2.35;;;19.70;99.90;;;;;;4145360;28;20217;-75
2022/11/08 04:48:01;;;;;;;3.03;2.08;;;19.70;99.90;;;;;;4152180;28;20263;-75
2022/11/08 04:50:04;;;;;;;5.07;2.25;;;19.60;99.90;;;;;;4149305;28;20328;-75
2022/11/08 04:52:07;;;;;;;4.05;2.15;;;19.70;99.90;;;;;;4144051;28;20225;-75
2022/11/08 04:54:10;;;;;;;4.22;2.00;;;19.70;99.90;;;;;;4149418;28;20248;-74
2022/11/08 04:56:14;;;;;;;3.50;2.10;;;19.60;99.90;;;;;;4148145;28;20362;-73
2022/11/08 04:58:17;;;;;;;2.67;2.20;;;19.70;99.90;;;;;;4144967;28;20279;-74
2022/11/08 05:00:19;;;;;;;2.92;2.00;;;19.60;99.90;;;;;;4148558;28;20283;-74
2022/11/08 05:02:21;;;;;;;5.60;2.33;;;19.60;99.90;;;;;;4146596;28;20247;-74
2022/11/08 05:04:24;;;;;;;2.75;2.10;;;19.60;99.90;;;;;;4147296;28;20701;-73
2022/11/08 05:06:28;;;;;;;3.13;2.00;;;19.60;99.90;;;;;;4150131;28;20326;-74
2022/11/08 05:08:32;;;;;;;2.90;1.88;;;19.60;99.90;;;;;;4145732;28;20216;-75
2022/11/08 05:10:34;;;;;;;3.85;2.30;;;19.60;99.90;;;;;;4149552;28;20225;-75
2022/11/08 05:12:37;;;;;;;3.80;2.10;;;19.60;99.90;;;;;;4144702;28;20682;-75
2022/11/08 05:14:39;;;;;;;3.28;1.80;;;19.60;99.90;;;;;;4146891;28;20899;-74
2022/11/08 05:16:41;;;;;;;2.85;1.88;;;19.60;99.90;;;;;;4147735;28;20225;-75
2022/11/08 05:18:43;;;;;;;5.35;2.05;;;19.60;99.90;;;;;;4149195;28;20224;-74
2022/11/08 05:23:23;;;;;;;3.03;2.10;;;19.60;99.90;;;;;;4151864;28;20200;-75
2022/11/08 05:25:26;;;;;;;2.92;1.90;;;19.60;99.90;;;;;;4149820;28;20221;-75
2022/11/08 05:27:28;;;;;;;3.65;2.40;;;19.60;99.90;;;;;;4147417;28;20213;-74
2022/11/08 05:29:31;;;;;;;3.55;1.80;;;19.60;99.90;;;;;;4147542;28;20237;-74
2022/11/08 05:31:33;;;;;;;4.18;1.77;;;19.60;99.90;;;;;;4150502;28;20232;-74
2022/11/08 05:33:35;;;;;;;3.67;2.05;;;19.60;99.90;;;;;;4146756;28;20704;-74
2022/11/08 05:35:38;;;;;;;3.50;1.75;;;19.60;99.90;;;;;;4147931;28;20579;-75
2022/11/08 05:37:44;;;;;;;3.05;2.00;;;19.60;99.90;;;;;;4147006;28;20668;-74
2022/11/08 05:39:46;;;;;;;3.60;2.20;;;19.60;99.90;;;;;;4145093;28;20609;-74
2022/11/08 05:41:49;;;;;;;4.28;2.47;;;19.60;99.90;;;;;;4148916;28;20217;-74
2022/11/08 05:43:53;;;;;;;2.78;2.00;;;19.60;99.90;;;;;;4145007;28;20209;-75
2022/11/08 05:45:56;;;;;;;2.95;2.10;;;19.60;99.90;;;;;;4146607;28;20219;-75
2022/11/08 05:48:02;;;;;;;3.58;2.05;;;19.60;99.90;;;;;;4146765;28;20215;-74
2022/11/08 05:50:05;;;;;;;4.00;2.13;;;19.60;99.90;;;;;;4145919;28;20620;-75
2022/11/08 05:52:07;;;;;;;2.85;1.73;;;19.60;99.90;;;;;;4151305;28;20220;-74
2022/11/08 05:54:11;;;;;;;4.55;2.15;;;19.60;99.90;;;;;;4149987;28;20290;-74
2022/11/08 05:56:14;;;;;;;3.13;1.95;;;19.60;99.90;;;;;;4141502;28;20558;-75
2022/11/08 05:58:18;;;;;;;3.85;2.28;;;19.60;99.90;;;;;;4145655;28;20548;-75
2022/11/08 06:00:20;;;;;;;2.80;1.85;;;19.60;99.90;;;;;;4148132;28;20213;-74
2022/11/08 06:02:22;;;;;;;3.30;2.47;;;19.60;99.90;;;;;;4142851;28;20221;-74
2022/11/08 06:04:25;;;;;;;3.50;1.85;;;19.60;99.90;;;;;;4148931;28;20303;-74
2022/11/08 06:06:27;;;;;;;3.08;2.22;;;19.60;99.90;;;;;;4145329;28;20566;-74
2022/11/08 06:08:29;;;;;;;3.03;1.85;;;19.60;99.90;;;;;;4143657;28;20678;-74
2022/11/08 06:10:32;;;;;;;3.15;1.80;;;19.60;99.90;;;;;;4148200;28;20217;-75
2022/11/08 06:12:34;;;;;;;4.15;1.70;;;19.60;99.90;;;;;;4147249;28;20501;-75
2022/11/08 06:14:37;;;;;;;3.42;1.63;;;19.70;99.90;;;;;;4147917;28;20838;-75
2022/11/08 06:16:40;;;;;;;3.38;2.03;;;19.70;99.90;;;;;;4152076;28;20228;-75
2022/11/08 06:18:43;;;;;;;3.58;1.88;;;19.70;99.90;;;;;;4148906;28;21077;-75
2022/11/08 06:20:45;;;;;;;2.88;1.70;;;19.70;99.90;;;;;;4147905;28;20221;-75
2022/11/08 06:22:47;;;;;;;3.30;1.92;;;19.70;99.90;;;;;;4152619;28;20342;-75
2022/11/08 06:24:50;;;;;;;2.80;1.92;;;19.70;99.90;;;;;;4147926;28;20220;-75
2022/11/08 06:26:52;;;;;;;3.17;1.48;;;19.70;99.90;;;;;;4150180;28;20217;-74
2022/11/08 06:28:54;;;;;;;2.47;1.85;;;19.80;99.90;;;;;;4152232;28;20221;-75
2022/11/08 06:31:00;;;;;;;3.13;1.65;;;19.80;99.90;;;;;;4145751;28;20225;-75
2022/11/08 06:33:02;;;;;;;2.90;1.70;;;19.80;99.90;;;;;;4151255;28;20233;-75
2022/11/08 06:35:05;;;;;;;3.70;1.63;;;19.80;99.90;;;;;;4152424;28;20244;-75
2022/11/08 06:37:07;;;;;;;2.50;1.50;;;19.90;99.90;;;;;;4145503;28;20320;-75
2022/11/08 06:39:10;;;;;;;2.80;1.60;;;19.90;99.90;;;;;;4152292;28;20229;-75
2022/11/08 06:41:21;;;;;;;2.40;1.73;;;19.90;99.90;;;;;;4150155;28;20275;-75
2022/11/08 06:43:23;;;;;;;3.22;1.77;;;19.90;99.90;;;;;;4153203;28;20314;-75
2022/11/08 06:45:29;;;;;;;2.75;1.70;;;19.90;99.90;;;;;;4151549;28;20287;-75
2022/11/08 06:47:33;;;;;;;2.80;1.50;;;20.00;99.90;;;;;;4145205;28;20217;-75
2022/11/08 06:49:36;;;;;;;5.15;1.80;;;20.00;99.90;;;;;;4153374;28;20228;-75
2022/11/08 06:51:38;;;;;;;4.25;1.90;;;20.00;99.90;;;;;;4153636;28;20670;-75
2022/11/08 06:53:41;;;;;;;1.63;1.40;;;20.00;99.90;;;;;;4146141;28;20616;-75
2022/11/08 06:55:43;;;;;;;3.10;1.75;;;20.00;99.90;;;;;;4151333;28;20241;-75
2022/11/08 06:57:45;;;;;;;2.83;1.50;;;20.00;99.90;;;;;;4151467;28;20291;-75
2022/11/08 06:59:48;;;;;;;2.10;1.50;;;20.00;99.90;;;;;;4143579;28;20213;-74
2022/11/08 07:01:51;;;;;;;2.10;1.60;;;20.00;99.90;;;;;;4144608;28;20621;-75
2022/11/08 07:03:54;;;;;;;3.10;1.60;;;20.00;99.90;;;;;;4151010;28;20290;-74
2022/11/08 07:05:56;;;;;;;2.78;1.70;;;20.00;99.90;;;;;;4146198;28;20678;-74
2022/11/08 07:07:59;;;;;;;2.70;1.83;;;20.00;99.90;;;;;;4139653;28;20275;-75
2022/11/08 07:10:01;;;;;;;4.10;1.73;;;19.90;99.90;;;;;;4146403;28;20278;-75
2022/11/08 07:12:04;;;;;;;4.20;2.20;;;19.80;99.90;;;;;;4146714;28;20285;-74
2022/11/08 07:14:06;;;;;;;2.53;1.70;;;19.90;99.90;;;;;;4150409;28;20217;-74
2022/11/08 07:16:09;;;;;;;3.83;1.80;;;19.80;99.90;;;;;;4144450;28;20621;-74
2022/11/08 07:18:13;;;;;;;4.97;2.08;;;19.70;99.90;;;;;;4148484;28;20221;-74
2022/11/08 07:20:17;;;;;;;3.42;1.63;;;19.60;99.90;;;;;;4147404;28;20300;-74
2022/11/08 07:22:19;;;;;;;3.65;1.90;;;19.80;99.90;;;;;;4143810;28;20225;-73
2022/11/08 07:24:21;;;;;;;2.33;1.60;;;19.80;99.90;;;;;;4149450;28;20287;-73
2022/11/08 07:26:24;;;;;;;3.47;1.63;;;19.90;99.90;;;;;;4147495;28;20212;-73
2022/11/08 07:28:26;;;;;;;3.45;1.55;;;19.90;99.90;;;;;;4146067;28;20326;-73
2022/11/08 07:30:29;;;;;;;3.65;1.77;;;19.90;99.90;;;;;;4150142;28;20221;-74
2022/11/08 07:32:31;;;;;;;2.85;1.60;;;20.00;99.90;;;;;;4149341;28;20267;-74
2022/11/08 07:34:35;;;;;;;2.97;1.98;;;20.00;99.90;;;;;;4142336;28;20244;-73
2022/11/08 07:36:39;;;;;;;5.07;1.98;;;20.00;99.90;;;;;;4139066;28;20311;-73
2022/11/08 07:38:41;;;;;;;3.00;1.83;;;20.10;99.90;;;;;;4125699;28;20265;-73
2022/11/08 07:40:43;;;;;;;4.10;1.45;;;20.10;99.90;;;;;;4146228;28;20217;-74
2022/11/08 07:42:46;;;;;;;2.65;1.75;;;20.10;99.90;;;;;;4151070;28;20236;-73
2022/11/08 07:44:48;;;;;;;3.38;1.80;;;20.10;99.90;;;;;;4145237;28;20310;-73
2022/11/08 07:46:50;;;;;;;3.58;1.88;;;20.20;99.90;;;;;;4141835;28;20221;-75
2022/11/08 07:48:52;;;;;;;2.33;1.52;;;20.20;99.90;;;;;;4146223;28;20248;-74
2022/11/08 07:50:55;;;;;;;2.90;1.48;;;20.20;99.90;;;;;;4145850;28;20217;-74
2022/11/08 07:52:59;;;;;;;2.47;1.40;;;20.20;99.90;;;;;;4139391;28;20217;-74
2022/11/08 07:55:01;;;;;;;4.05;1.70;;;20.20;99.90;;;;;;4135773;28;20241;-74
2022/11/08 07:57:04;;;;;;;2.67;1.30;;;20.20;99.90;;;;;;4137031;28;20221;-74
2022/11/08 07:59:06;;;;;;;3.45;1.58;;;20.30;99.90;;;;;;4146515;28;20217;-74
2022/11/08 08:01:08;;;;;;;4.43;1.30;;;20.30;99.90;;;;;;4143504;28;20283;-74
2022/11/08 08:03:13;;;;;;;3.90;1.70;;;20.30;99.90;;;;;;4142060;28;20314;-74
2022/11/08 08:05:16;;;;;;;7.53;2.20;;;20.30;99.90;;;;;;4146513;28;20288;-74
2022/11/08 08:07:18;;;;;;;2.85;1.60;;;20.40;99.90;;;;;;4130675;28;20224;-75
2022/11/08 08:09:22;;;;;;;2.80;1.45;;;20.30;99.90;;;;;;4140592;28;20248;-75
2022/11/08 08:11:24;;;;;;;2.13;1.55;;;20.40;99.90;;;;;;4142982;28;20259;-75
2022/11/08 08:13:26;;;;;;;2.85;1.52;;;20.50;99.90;;;;;;4142947;28;20217;-73
2022/11/08 08:15:29;;;;;;;2.55;1.42;;;20.50;99.90;;;;;;4139425;28;20763;-74
2022/11/08 08:17:32;;;;;;;5.75;1.90;;;20.50;99.90;;;;;;4131389;28;20313;-74
2022/11/08 08:19:34;;;;;;;2.90;1.33;;;20.60;99.90;;;;;;4142348;28;20220;-74
2022/11/08 08:21:37;;;;;;;3.33;1.35;;;20.60;99.90;;;;;;4144657;28;21441;-75
2022/11/08 08:23:39;;;;;;;2.67;1.60;;;20.60;99.90;;;;;;4142550;28;20225;-74
2022/11/08 08:25:45;;;;;;;3.05;1.70;;;20.70;99.90;;;;;;4141338;28;20217;-75
2022/11/08 08:27:47;;;;;;;3.90;1.50;;;20.70;99.90;;;;;;4144874;28;20221;-69
2022/11/08 08:29:50;;;;;;;2.47;1.33;;;20.70;99.90;;;;;;4143109;28;20221;-70
2022/11/08 08:31:52;;;;;;;4.25;1.60;;;20.70;99.90;;;;;;4142042;28;20646;-74
2022/11/08 08:33:54;;;;;;;3.53;1.65;;;20.70;99.90;;;;;;4139773;28;20217;-75
2022/11/08 08:35:59;;;;;;;2.45;1.75;;;20.70;99.90;;;;;;4139377;28;20241;-75
2022/11/08 08:38:02;;;;;;;3.78;1.48;;;20.80;99.90;;;;;;4144025;28;20627;-72
2022/11/08 08:40:05;;;;;;;3.72;1.55;;;20.80;99.90;;;;;;4144462;28;20217;-70
2022/11/08 08:42:09;;;;;;;6.00;1.52;;;20.90;99.90;;;;;;4142627;28;20225;-70
2022/11/08 08:44:11;;;;;;;2.95;1.48;;;20.90;99.90;;;;;;4142942;28;20275;-70
2022/11/08 08:46:13;;;;;;;4.30;1.45;;;21.00;99.90;;;;;;4141882;28;20217;-70
2022/11/08 08:48:16;;;;;;;2.90;1.17;;;20.90;99.90;;;;;;4140151;28;20640;-71
2022/11/08 08:50:18;;;;;;;2.85;1.30;;;21.00;99.90;;;;;;4141532;28;20271;-71
2022/11/08 08:52:21;;;;;;;2.28;1.42;;;21.00;99.90;;;;;;4142069;28;20631;-71
2022/11/08 08:54:23;;;;;;;2.05;1.40;;;21.10;99.90;;;;;;4136977;28;20271;-71
2022/11/08 08:56:25;;;;;;;4.50;1.65;;;21.10;99.90;;;;;;4143780;28;20282;-70
2022/11/08 08:58:35;;;;;;;2.75;1.40;;;21.10;99.90;;;;;;4188485;28;20841;-71
2022/11/08 09:00:38;;;;;;;7.53;1.77;;;21.20;99.90;;;;;;4187852;28;20215;-70
2022/11/08 09:02:40;;;;;;;3.63;1.70;;;21.20;99.90;;;;;;4189943;28;20219;-70
2022/11/08 09:04:42;;;;;;;4.65;1.70;;;21.20;99.90;;;;;;4184827;28;20211;-70
2022/11/08 09:06:44;;;;;;;3.38;1.42;;;21.20;99.90;;;;;;4186968;28;20619;-70
2022/11/08 09:08:47;;;;;;;2.85;1.55;;;21.20;99.90;;;;;;4184282;28;20216;-70
2022/11/08 09:10:55;;;;;;;3.72;1.52;;;21.30;99.90;;;;;;4182929;28;20220;-70
2022/11/08 09:12:58;;;;;;;1.38;1.10;;;21.30;99.90;;;;;;4184625;28;20229;-70
2022/11/08 09:15:01;;;;;;;2.05;1.40;;;21.40;99.90;;;;;;4181862;28;20238;-69
2022/11/08 09:17:04;;;;;;;3.25;1.50;;;21.40;99.90;;;;;;4184960;28;20242;-70
2022/11/08 09:19:06;;;;;;;2.95;1.48;;;21.40;99.90;;;;;;4186275;28;20278;-70
2022/11/08 09:21:08;;;;;;;2.75;1.65;;;21.40;99.90;;;;;;4187818;28;20215;-69
2022/11/08 09:23:12;;;;;;;6.00;1.90;;;21.40;99.90;;;;;;4185725;28;20208;-69
2022/11/08 09:25:14;;;;;;;2.83;1.55;;;21.40;99.90;;;;;;4187903;28;20212;-70
2022/11/08 09:27:16;;;;;;;2.42;1.30;;;21.50;99.90;;;;;;4183108;28;20208;-70
2022/11/08 09:29:18;;;;;;;10.18;1.67;;;21.50;99.90;;;;;;4185758;28;20648;-70
2022/11/08 09:31:22;;;;;;;5.80;1.73;;;21.50;99.90;;;;;;4181805;28;20265;-69
2022/11/08 09:33:24;;;;;;;5.88;1.88;;;21.50;99.90;;;;;;4187852;28;20312;-70
2022/11/08 09:35:27;;;;;;;4.18;1.60;;;21.50;99.90;;;;;;4185090;28;20935;-71
2022/11/08 09:37:29;;;;;;;3.03;1.42;;;21.50;99.90;;;;;;4184543;28;20255;-72
2022/11/08 09:39:31;;;;;;;4.13;1.30;;;21.50;99.90;;;;;;4181210;28;20223;-71
2022/11/08 09:42:03;;;;;;;3.53;1.75;;;21.50;99.90;;;;;;4180096;28;20219;-70
2022/11/08 09:44:18;;;;;;;4.72;1.55;;;21.50;99.90;;;;;;4162058;28;20215;-71
2022/11/08 09:46:30;;;;;;;7.63;1.88;;;21.50;99.90;;;;;;4184276;28;20241;-73
2022/11/08 09:48:36;;;;;;;5.13;1.73;;;21.50;99.90;;;;;;4184737;28;20287;-74
2022/11/08 09:50:42;;;;;;;4.05;1.58;;;21.70;99.90;;;;;;4184765;28;20992;-73
2022/11/08 09:52:49;;;;;;;2.75;1.50;;;21.70;99.90;;;;;;4182476;28;20224;-74
2022/11/08 09:54:54;;;;;;;4.45;1.83;;;21.70;99.90;;;;;;4185900;28;20226;-74
2022/11/08 09:56:56;;;;;;;5.32;1.40;;;21.70;99.90;;;;;;4183008;28;21346;-74
2022/11/08 09:59:03;;;;;;;2.17;1.30;;;21.70;99.90;;;;;;4186303;28;20239;-73
2022/11/08 10:01:05;;;;;;;4.05;1.30;;;21.70;99.90;;;;;;4181181;28;20216;-73
2022/11/08 10:03:13;;;;;;;3.53;1.27;;;21.70;99.90;;;;;;4185267;28;20655;-74
2022/11/08 10:05:18;;;;;;;1.45;1.30;;;21.80;99.90;;;;;;4184680;28;20227;-73
2022/11/08 10:07:28;;;;;;;2.55;1.25;;;21.80;99.90;;;;;;4182169;28;21601;-74
2022/11/08 10:09:43;;;;;;;4.65;1.70;;;21.80;99.90;;;;;;4176067;28;20265;-74
2022/11/08 10:11:53;;;;;;;5.70;1.67;;;21.80;99.90;;;;;;4173511;28;20225;-78
2022/11/08 10:14:06;;;;;;;2.90;1.20;;;21.90;99.90;;;;;;4171728;28;20245;-75
2022/11/08 10:16:18;;;;;;;4.50;1.42;;;21.90;99.90;;;;;;4170821;28;20660;-79
2022/11/08 10:18:46;;;;;;;8.20;1.85;;;21.90;99.90;;;;;;4173445;28;20297;-75
2022/11/08 10:21:01;;;;;;;2.90;1.40;;;21.90;99.90;;;;;;4176022;28;20228;-74
2022/11/08 10:23:14;;;;;;;8.38;1.65;;;21.90;99.90;;;;;;4174725;28;20261;-73
2022/11/08 10:25:22;;;;;;;6.22;1.45;;;21.90;99.90;;;;;;4160544;28;20223;-75
2022/11/08 10:27:32;;;;;;;2.72;1.48;;;21.90;99.90;;;;;;4167249;28;20875;-73
2022/11/08 10:29:39;;;;;;;5.50;1.58;;;22.00;99.90;;;;;;4171612;28;20223;-73
2022/11/08 10:31:45;;;;;;;3.47;1.50;;;21.90;99.90;;;;;;4175212;28;20220;-73
2022/11/08 10:33:52;;;;;;;3.58;1.70;;;22.00;99.90;;;;;;4172911;28;20217;-72
2022/11/08 10:35:57;;;;;;;3.15;1.50;;;21.90;99.90;;;;;;4175147;28;20273;-74
2022/11/08 10:38:02;;;;;;;2.25;1.30;;;22.00;99.90;;;;;;4174137;28;20240;-74
2022/11/08 10:40:17;;;;;;;5.50;1.48;;;22.00;99.90;;;;;;4176198;28;20220;-74
2022/11/08 10:42:25;;;;;;;5.88;1.70;;;22.00;99.90;;;;;;4176881;28;20227;-74
2022/11/08 10:44:28;;;;;;;3.38;1.40;;;22.00;99.90;;;;;;4173917;28;20261;-74
2022/11/08 10:46:39;;;;;;;3.70;1.40;;;22.00;99.90;;;;;;4173554;28;20589;-74
2022/11/08 10:48:41;;;;;;;3.13;1.40;;;22.00;99.90;;;;;;4172328;28;20261;-73
2022/11/08 10:50:49;;;;;;;3.20;1.33;;;22.00;99.90;;;;;;4173162;28;20223;-74
2022/11/08 10:52:57;;;;;;;3.13;1.50;;;22.00;99.90;;;;;;4169578;28;20215;-74
2022/11/08 10:55:00;;;;;;;2.33;1.40;;;22.00;99.90;;;;;;4172721;28;20261;-75
2022/11/08 10:57:02;;;;;;;7.18;1.73;;;22.00;99.90;;;;;;4171566;28;20273;-75
2022/11/08 10:59:05;;;;;;;2.47;1.35;;;22.00;99.90;;;;;;4175564;28;20247;-74
2022/11/08 11:01:15;;;;;;;3.08;1.38;;;22.00;99.90;;;;;;4176250;28;20270;-74
2022/11/08 11:03:27;;;;;;;2.28;1.50;;;22.00;99.90;;;;;;4170912;28;20623;-75
2022/11/08 11:05:34;;;;;;;3.25;1.77;;;22.10;99.90;;;;;;4173824;28;20616;-75